createdAt,value
2023-05-11T00:01:34.077Z,100666.25
2023-05-11T00:04:01.386Z,100666.70
2023-05-11T00:06:28.847Z,100667.03
2023-05-11T00:08:56.110Z,100665.11
2023-05-11T00:11:23.884Z,100666.71
2023-05-11T00:13:51.274Z,100666.65
2023-05-11T00:16:18.317Z,100670.05
2023-05-11T00:18:45.710Z,100672.38
2023-05-11T00:21:12.911Z,100675.07
2023-05-11T00:23:40.124Z,100672.53
2023-05-11T00:26:07.278Z,100673.02
2023-05-11T00:28:34.270Z,100677.02
2023-05-11T00:31:01.639Z,100677.78
2023-05-11T00:33:28.826Z,100681.89
2023-05-11T00:35:55.969Z,100682.57
2023-05-11T00:38:23.019Z,100680.80
2023-05-11T00:40:50.478Z,100679.67
2023-05-11T00:43:17.628Z,100680.81
2023-05-11T00:45:48.179Z,100683.40
2023-05-11T00:48:16.273Z,100681.71
2023-05-11T00:50:43.506Z,100680.67
2023-05-11T00:53:11.734Z,100675.71
2023-05-11T00:55:38.933Z,100679.26
2023-05-11T00:58:06.306Z,100677.92
2023-05-11T01:00:33.579Z,100676.64
2023-05-11T01:03:01.109Z,100679.71
2023-05-11T01:05:34.584Z,100680.70
2023-05-11T01:08:15.663Z,100677.57
2023-05-11T01:10:49.718Z,100676.66
2023-05-11T01:13:22.906Z,100679.17
2023-05-11T01:15:53.998Z,100675.86
2023-05-11T01:18:35.224Z,100673.52
2023-05-11T01:21:07.188Z,100669.87
2023-05-11T01:24:09.010Z,100670.38
2023-05-11T01:27:03.903Z,100668.75
2023-05-11T01:30:26.112Z,100670.86
2023-05-11T01:33:04.322Z,100670.18
2023-05-11T01:35:31.608Z,100670.25
2023-05-11T01:37:59.805Z,100670.04
2023-05-11T01:40:29.278Z,100667.80
2023-05-11T01:43:05.139Z,100664.79
2023-05-11T01:45:35.009Z,100667.77
2023-05-11T01:48:03.874Z,100670.34
2023-05-11T01:50:31.098Z,100666.33
2023-05-11T01:52:59.062Z,100672.34
2023-05-11T01:55:26.427Z,100673.52
2023-05-11T01:57:54.199Z,100675.50
2023-05-11T02:00:21.657Z,100675.45
2023-05-11T02:02:49.211Z,100673.95
2023-05-11T02:05:21.403Z,100673.70
2023-05-11T02:07:50.729Z,100673.67
2023-05-11T02:10:18.790Z,100674.27
2023-05-11T02:12:47.045Z,100674.58
2023-05-11T02:15:14.500Z,100673.10
2023-05-11T02:17:41.618Z,100670.77
2023-05-11T02:20:09.434Z,100676.43
2023-05-11T02:22:36.533Z,100675.10
2023-05-11T02:25:04.763Z,100674.48
2023-05-11T02:27:33.247Z,100672.60
2023-05-11T02:30:00.540Z,100673.17
2023-05-11T02:32:30.088Z,100673.58
2023-05-11T02:35:09.444Z,100672.44
2023-05-11T02:37:36.599Z,100672.08
2023-05-11T02:40:06.831Z,100670.81
2023-05-11T02:42:37.183Z,100670.51
2023-05-11T02:45:06.093Z,100675.74
2023-05-11T02:47:46.587Z,100675.36
2023-05-11T02:50:15.691Z,100677.27
2023-05-11T02:52:45.308Z,100672.45
2023-05-11T02:55:12.595Z,100676.31
2023-05-11T02:57:39.886Z,100674.70
2023-05-11T03:00:08.847Z,100679.50
2023-05-11T03:02:36.233Z,100678.63
2023-05-11T03:05:05.260Z,100681.29
2023-05-11T03:07:33.270Z,100686.44
2023-05-11T03:10:01.564Z,100681.43
2023-05-11T03:12:34.120Z,100682.33
2023-05-11T03:15:03.340Z,100687.29
2023-05-11T03:17:31.292Z,100684.17
2023-05-11T03:19:59.058Z,100685.48
2023-05-11T03:22:26.209Z,100684.05
2023-05-11T03:24:53.277Z,100682.48
2023-05-11T03:27:20.426Z,100684.91
2023-05-11T03:29:48.465Z,100682.71
2023-05-11T03:32:15.884Z,100682.19
2023-05-11T03:34:43.092Z,100683.86
2023-05-11T03:37:13.237Z,100687.33
2023-05-11T03:39:41.776Z,100690.15
2023-05-11T03:42:09.173Z,100692.72
2023-05-11T03:44:36.523Z,100696.64
2023-05-11T03:47:04.455Z,100697.05
2023-05-11T03:49:32.322Z,100697.45
2023-05-11T03:51:59.521Z,100696.69
2023-05-11T03:54:27.078Z,100698.16
2023-05-11T03:56:54.157Z,100700.70
2023-05-11T03:59:21.353Z,100700.27
2023-05-11T04:01:51.755Z,100701.04
2023-05-11T04:04:19.893Z,100700.03
2023-05-11T04:06:47.500Z,100699.59
2023-05-11T04:09:18.283Z,100697.85
2023-05-11T04:11:45.605Z,100698.72
2023-05-11T04:14:12.828Z,100698.77
2023-05-11T04:16:40.020Z,100701.30
2023-05-11T04:19:07.719Z,100695.91
2023-05-11T04:21:36.236Z,100696.52
2023-05-11T04:24:04.421Z,100693.73
2023-05-11T04:26:31.621Z,100698.16
2023-05-11T04:28:58.932Z,100699.27
2023-05-11T04:31:26.003Z,100697.89
2023-05-11T04:33:53.538Z,100700.80
2023-05-11T04:36:22.515Z,100694.73
2023-05-11T04:38:49.756Z,100696.44
2023-05-11T04:41:17.119Z,100696.80
2023-05-11T04:43:45.281Z,100701.64
2023-05-11T04:46:12.613Z,100699.38
2023-05-11T04:48:39.849Z,100700.74
2023-05-11T04:51:07.158Z,100698.73
2023-05-11T04:53:39.313Z,100699.18
2023-05-11T04:56:06.774Z,100697.02
2023-05-11T04:58:34.007Z,100695.88
2023-05-11T05:01:01.714Z,100694.84
2023-05-11T05:03:29.100Z,100692.80
2023-05-11T05:05:56.293Z,100691.19
2023-05-11T05:08:23.716Z,100688.31
2023-05-11T05:10:50.903Z,100688.52
2023-05-11T05:13:18.056Z,100689.79
2023-05-11T05:15:45.223Z,100684.20
2023-05-11T05:18:12.419Z,100686.02
2023-05-11T05:20:39.932Z,100683.16
2023-05-11T05:23:06.980Z,100686.94
2023-05-11T05:25:34.420Z,100687.92
2023-05-11T05:28:01.488Z,100684.84
2023-05-11T05:30:28.755Z,100688.20
2023-05-11T05:32:55.908Z,100686.65
2023-05-11T05:35:23.020Z,100687.48
2023-05-11T05:37:50.269Z,100687.58
2023-05-11T05:40:18.343Z,100690.00
2023-05-11T05:42:48.559Z,100687.66
2023-05-11T05:45:20.319Z,100686.21
2023-05-11T05:47:49.341Z,100686.87
2023-05-11T05:50:17.443Z,100688.80
2023-05-11T05:52:45.541Z,100688.98
2023-05-11T05:55:13.358Z,100692.85
2023-05-11T05:57:40.776Z,100696.18
2023-05-11T06:00:10.885Z,100697.52
2023-05-11T06:02:41.688Z,100697.48
2023-05-11T06:05:12.171Z,100698.11
2023-05-11T06:07:39.716Z,100702.30
2023-05-11T06:10:07.173Z,100701.73
2023-05-11T06:12:34.462Z,100700.59
2023-05-11T06:15:01.889Z,100693.55
2023-05-11T06:17:30.103Z,100695.02
2023-05-11T06:19:57.520Z,100693.80
2023-05-11T06:22:26.412Z,100688.75
2023-05-11T06:24:53.709Z,100683.67
2023-05-11T06:27:22.041Z,100683.09
2023-05-11T06:29:49.311Z,100680.85
2023-05-11T06:32:16.983Z,100678.31
2023-05-11T06:34:44.053Z,100674.71
2023-05-11T06:37:11.252Z,100675.16
2023-05-11T06:39:38.406Z,100674.55
2023-05-11T06:42:08.373Z,100672.91
2023-05-11T06:44:35.781Z,100676.02
2023-05-11T06:47:06.071Z,100672.49
2023-05-11T06:49:33.359Z,100675.80
2023-05-11T06:52:00.516Z,100675.77
2023-05-11T06:54:27.960Z,100672.66
2023-05-11T06:56:55.110Z,100670.83
2023-05-11T06:59:22.156Z,100677.45
2023-05-11T07:01:49.205Z,100674.89
2023-05-11T07:04:16.404Z,100672.54
2023-05-11T07:06:43.509Z,100670.90
2023-05-11T07:09:10.557Z,100670.62
2023-05-11T07:11:38.127Z,100668.69
2023-05-11T07:14:06.097Z,100667.45
2023-05-11T07:16:33.317Z,100664.40
2023-05-11T07:19:00.577Z,100667.53
2023-05-11T07:21:27.775Z,100665.64
2023-05-11T07:23:54.882Z,100664.85
2023-05-11T07:26:22.372Z,100666.95
2023-05-11T07:28:49.530Z,100663.53
2023-05-11T07:31:16.560Z,100664.66
2023-05-11T07:33:43.689Z,100664.73
2023-05-11T07:36:10.834Z,100666.96
2023-05-11T07:38:38.041Z,100664.59
2023-05-11T07:41:06.863Z,100665.60
2023-05-11T07:43:34.640Z,100667.64
2023-05-11T07:46:01.696Z,100664.53
2023-05-11T07:48:29.221Z,100662.20
2023-05-11T07:50:56.301Z,100660.80
2023-05-11T07:53:23.335Z,100657.32
2023-05-11T07:55:50.599Z,100651.43
2023-05-11T07:58:17.849Z,100653.71
2023-05-11T08:00:44.894Z,100649.55
2023-05-11T08:03:12.123Z,100646.88
2023-05-11T08:05:39.524Z,100651.80
2023-05-11T08:08:06.653Z,100653.92
2023-05-11T08:10:33.800Z,100654.21
2023-05-11T08:13:00.849Z,100650.05
2023-05-11T08:15:28.304Z,100654.23
2023-05-11T08:17:55.809Z,100648.98
2023-05-11T08:20:23.880Z,100649.78
2023-05-11T08:22:51.103Z,100650.84
2023-05-11T08:25:18.631Z,100649.05
2023-05-11T08:27:46.145Z,100644.42
2023-05-11T08:30:13.795Z,100642.86
2023-05-11T08:35:11.110Z,100639.36
2023-05-11T08:37:38.292Z,100635.01
2023-05-11T08:40:06.113Z,100634.17
2023-05-11T08:42:34.241Z,100636.83
2023-05-11T08:45:01.821Z,100634.73
2023-05-11T08:47:29.279Z,100631.59
2023-05-11T08:49:56.800Z,100630.37
2023-05-11T08:52:23.977Z,100619.83
2023-05-11T08:54:51.227Z,100618.96
2023-05-11T08:57:18.382Z,100620.45
2023-05-11T08:59:49.197Z,100625.33
2023-05-11T09:02:17.642Z,100618.48
2023-05-11T09:04:48.057Z,100619.31
2023-05-11T09:07:17.870Z,100623.38
2023-05-11T09:09:46.235Z,100619.14
2023-05-11T09:12:13.891Z,100620.05
2023-05-11T09:14:41.126Z,100615.73
2023-05-11T09:17:08.388Z,100616.72
2023-05-11T09:19:35.510Z,100616.21
2023-05-11T09:22:02.534Z,100619.86
2023-05-11T09:24:29.767Z,100614.08
2023-05-11T09:27:09.617Z,100614.83
2023-05-11T09:29:36.698Z,100619.48
2023-05-11T09:32:05.008Z,100608.73
2023-05-11T09:34:32.138Z,100618.98
2023-05-11T09:36:59.310Z,100617.23
2023-05-11T09:39:44.719Z,100618.72
2023-05-11T09:42:24.404Z,100619.05
2023-05-11T09:44:53.391Z,100620.27
2023-05-11T09:47:22.667Z,100620.54
2023-05-11T09:49:50.280Z,100619.08
2023-05-11T09:52:58.394Z,100616.85
2023-05-11T09:55:26.085Z,100619.62
2023-05-11T09:57:55.449Z,100617.69
2023-05-11T10:00:22.572Z,100607.63
2023-05-11T10:03:00.667Z,100605.77
2023-05-11T10:05:28.177Z,100608.34
2023-05-11T10:08:02.885Z,100608.63
2023-05-11T10:10:31.674Z,100605.36
2023-05-11T10:13:00.061Z,100613.27
2023-05-11T10:15:30.787Z,100617.95
2023-05-11T10:17:59.926Z,100622.20
2023-05-11T10:20:27.440Z,100622.82
2023-05-11T10:22:56.512Z,100619.67
2023-05-11T10:25:24.088Z,100619.55
2023-05-11T10:27:51.847Z,100616.55
2023-05-11T10:30:19.576Z,100617.30
2023-05-11T10:32:50.271Z,100627.86
2023-05-11T10:35:17.389Z,100623.52
2023-05-11T10:37:45.032Z,100621.85
2023-05-11T10:40:12.341Z,100623.66
2023-05-11T10:42:45.513Z,100623.91
2023-05-11T10:45:24.242Z,100624.29
2023-05-11T10:48:00.269Z,100625.30
2023-05-11T10:50:48.520Z,100621.95
2023-05-11T10:53:34.536Z,100624.74
2023-05-11T10:56:18.042Z,100627.59
2023-05-11T10:59:03.993Z,100625.16
2023-05-11T11:01:41.003Z,100620.56
2023-05-11T11:04:09.906Z,100622.58
2023-05-11T11:06:43.803Z,100625.38
2023-05-11T11:09:16.231Z,100622.42
2023-05-11T11:11:46.541Z,100626.63
2023-05-11T11:14:14.885Z,100629.62
2023-05-11T11:17:17.366Z,100634.55
2023-05-11T11:19:44.526Z,100633.72
2023-05-11T11:22:38.260Z,100635.64
2023-05-11T11:25:12.114Z,100634.65
2023-05-11T11:27:45.299Z,100632.64
2023-05-11T11:30:19.703Z,100633.98
2023-05-11T11:32:48.430Z,100632.98
2023-05-11T11:35:41.866Z,100633.03
2023-05-11T11:38:10.843Z,100632.33
2023-05-11T11:40:47.214Z,100629.78
2023-05-11T11:43:22.383Z,100629.44
2023-05-11T11:45:56.809Z,100626.79
2023-05-11T11:48:35.515Z,100627.37
2023-05-11T11:51:06.379Z,100625.27
2023-05-11T11:53:36.698Z,100623.13
2023-05-11T11:56:24.113Z,100620.19
2023-05-11T11:58:51.780Z,100619.92
2023-05-11T12:01:23.814Z,100622.77
2023-05-11T12:04:14.228Z,100617.13
2023-05-11T12:06:43.167Z,100620.28
2023-05-11T12:09:10.672Z,100621.96
2023-05-11T12:11:37.959Z,100626.45
2023-05-11T12:14:05.065Z,100626.27
2023-05-11T12:16:32.482Z,100621.57
2023-05-11T12:19:01.900Z,100618.55
2023-05-11T12:21:31.799Z,100619.18
2023-05-11T12:24:03.160Z,100619.59
2023-05-11T12:26:31.130Z,100620.18
2023-05-11T12:29:08.578Z,100621.46
2023-05-11T12:31:36.943Z,100624.70
2023-05-11T12:34:04.174Z,100624.17
2023-05-11T12:36:32.143Z,100625.62
2023-05-11T12:38:59.317Z,100626.50
2023-05-11T12:41:27.465Z,100628.42
2023-05-11T12:43:54.838Z,100627.52
2023-05-11T12:46:22.525Z,100630.73
2023-05-11T12:48:50.753Z,100624.59
2023-05-11T12:52:01.354Z,100627.21
2023-05-11T12:54:28.402Z,100626.50
2023-05-11T12:56:55.665Z,100625.34
2023-05-11T12:59:33.497Z,100628.27
2023-05-11T13:02:08.370Z,100630.30
2023-05-11T13:04:35.622Z,100630.08
2023-05-11T13:07:03.590Z,100633.64
2023-05-11T13:09:30.751Z,100633.94
2023-05-11T13:12:13.684Z,100636.42
2023-05-11T13:14:40.903Z,100639.46
2023-05-11T13:17:08.668Z,100633.78
2023-05-11T13:19:37.866Z,100632.49
2023-05-11T13:22:05.755Z,100636.98
2023-05-11T13:24:34.437Z,100637.23
2023-05-11T13:27:02.085Z,100637.34
2023-05-11T13:29:29.135Z,100641.42
2023-05-11T13:31:56.320Z,100638.02
2023-05-11T13:34:23.636Z,100639.20
2023-05-11T13:36:50.997Z,100640.10
2023-05-11T13:39:18.252Z,100640.80
2023-05-11T13:41:46.431Z,100642.64
2023-05-11T13:44:13.524Z,100640.90
2023-05-11T13:46:40.790Z,100641.41
2023-05-11T13:49:08.821Z,100642.23
2023-05-11T13:51:36.070Z,100642.72
2023-05-11T13:54:03.685Z,100639.52
2023-05-11T13:56:31.769Z,100641.95
2023-05-11T13:59:00.094Z,100643.31
2023-05-11T14:01:27.872Z,100648.98
2023-05-11T14:03:56.231Z,100644.46
2023-05-11T14:06:24.373Z,100646.58
2023-05-11T14:08:51.940Z,100649.66
2023-05-11T14:11:19.075Z,100648.11
2023-05-11T14:13:46.227Z,100648.17
2023-05-11T14:16:13.673Z,100649.05
2023-05-11T14:18:41.211Z,100650.35
2023-05-11T14:21:08.495Z,100651.65
2023-05-11T14:23:37.603Z,100648.15
2023-05-11T14:26:06.817Z,100649.06
2023-05-11T14:28:34.164Z,100650.48
2023-05-11T14:31:01.517Z,100652.98
2023-05-11T14:33:28.650Z,100651.04
2023-05-11T14:35:56.020Z,100653.92
2023-05-11T14:38:23.330Z,100652.14
2023-05-11T14:40:52.411Z,100651.87
2023-05-11T14:43:19.740Z,100650.52
2023-05-11T14:45:46.856Z,100649.30
2023-05-11T14:48:14.163Z,100645.12
2023-05-11T14:50:43.315Z,100645.95
2023-05-11T14:53:10.548Z,100645.64
2023-05-11T14:55:38.023Z,100641.49
2023-05-11T14:58:07.938Z,100644.89
2023-05-11T15:00:41.838Z,100647.41
2023-05-11T15:03:10.842Z,100648.09
2023-05-11T15:05:38.562Z,100643.63
2023-05-11T15:08:12.756Z,100646.54
2023-05-11T15:10:46.004Z,100647.00
2023-05-11T15:13:14.796Z,100647.45
2023-05-11T15:15:42.181Z,100652.45
2023-05-11T15:18:09.386Z,100657.95
2023-05-11T15:20:38.826Z,100653.96
2023-05-11T15:23:09.747Z,100656.48
2023-05-11T15:25:37.113Z,100656.39
2023-05-11T15:28:04.272Z,100659.11
2023-05-11T15:30:32.706Z,100658.55
2023-05-11T15:33:00.338Z,100661.95
2023-05-11T15:35:27.651Z,100662.73
2023-05-11T15:37:54.753Z,100663.20
2023-05-11T15:40:21.908Z,100667.42
2023-05-11T15:42:49.094Z,100667.48
2023-05-11T15:45:16.524Z,100668.05
2023-05-11T15:47:43.924Z,100670.95
2023-05-11T15:50:11.049Z,100670.76
2023-05-11T15:52:38.105Z,100671.83
2023-05-11T15:55:05.863Z,100672.72
2023-05-11T15:57:33.625Z,100673.05
2023-05-11T16:00:00.720Z,100680.09
2023-05-11T16:02:27.876Z,100678.31
2023-05-11T16:04:55.440Z,100679.45
2023-05-11T16:07:22.643Z,100681.48
2023-05-11T16:09:49.785Z,100680.70
2023-05-11T16:12:16.846Z,100683.71
2023-05-11T16:14:44.081Z,100685.58
2023-05-11T16:17:11.301Z,100687.73
2023-05-11T16:19:38.542Z,100684.69
2023-05-11T16:22:05.632Z,100684.20
2023-05-11T16:24:34.483Z,100685.15
2023-05-11T16:27:02.106Z,100688.67
2023-05-11T16:29:29.244Z,100689.38
2023-05-11T16:31:56.785Z,100693.19
2023-05-11T16:34:24.285Z,100691.37
2023-05-11T16:36:51.413Z,100696.30
2023-05-11T16:39:18.557Z,100696.22
2023-05-11T16:41:45.698Z,100697.95
2023-05-11T16:44:13.587Z,100700.91
2023-05-11T16:46:40.843Z,100700.84
2023-05-11T16:49:07.998Z,100701.47
2023-05-11T16:51:35.139Z,100704.44
2023-05-11T16:54:02.374Z,100706.23
2023-05-11T16:56:29.643Z,100712.05
2023-05-11T16:58:56.734Z,100710.42
2023-05-11T17:01:23.838Z,100712.55
2023-05-11T17:03:51.438Z,100712.80
2023-05-11T17:06:20.941Z,100715.02
2023-05-11T17:08:48.242Z,100725.35
2023-05-11T17:11:15.402Z,100723.08
2023-05-11T17:13:42.451Z,100729.67
2023-05-11T17:16:09.584Z,100729.61
2023-05-11T17:18:36.919Z,100730.80
2023-05-11T17:21:04.424Z,100734.48
2023-05-11T17:23:31.767Z,100737.95
2023-05-11T17:25:59.626Z,100736.42
2023-05-11T17:28:27.322Z,100743.64
2023-05-11T17:30:54.390Z,100747.30
2023-05-11T17:33:21.644Z,100746.02
2023-05-11T17:35:50.720Z,100748.14
2023-05-11T17:38:18.048Z,100749.98
2023-05-11T17:40:45.390Z,100756.84
2023-05-11T17:43:12.983Z,100754.17
2023-05-11T17:45:40.109Z,100756.80
2023-05-11T17:48:07.273Z,100758.61
2023-05-11T17:50:36.703Z,100764.62
2023-05-11T17:53:03.784Z,100768.30
2023-05-11T17:55:31.580Z,100772.16
2023-05-11T17:57:59.032Z,100774.77
2023-05-11T18:00:27.961Z,100778.12
2023-05-11T18:02:55.454Z,100777.91
2023-05-11T18:05:28.161Z,100781.09
2023-05-11T18:08:02.948Z,100783.63
2023-05-11T18:10:30.340Z,100782.55
2023-05-11T18:12:57.299Z,100785.52
2023-05-11T18:15:24.435Z,100787.07
2023-05-11T18:17:51.793Z,100791.16
2023-05-11T18:20:19.137Z,100792.35
2023-05-11T18:22:47.120Z,100792.12
2023-05-11T18:25:15.383Z,100792.08
2023-05-11T18:27:42.440Z,100796.16
2023-05-11T18:30:10.587Z,100796.58
2023-05-11T18:32:37.692Z,100796.11
2023-05-11T18:35:06.070Z,100799.27
2023-05-11T18:37:35.624Z,100799.80
2023-05-11T18:40:06.563Z,100798.85
2023-05-11T18:42:36.840Z,100799.80
2023-05-11T18:45:04.598Z,100803.77
2023-05-11T18:47:36.544Z,100800.97
2023-05-11T18:50:04.609Z,100802.84
2023-05-11T18:52:31.654Z,100804.13
2023-05-11T18:55:00.303Z,100801.58
2023-05-11T18:57:29.819Z,100799.71
2023-05-11T18:59:57.405Z,100794.77
2023-05-11T19:02:24.672Z,100795.40
2023-05-11T19:04:51.726Z,100797.13
2023-05-11T19:07:20.287Z,100798.81
2023-05-11T19:09:47.925Z,100799.79
2023-05-11T19:12:15.403Z,100800.64
2023-05-11T19:14:42.555Z,100801.83
2023-05-11T19:17:09.755Z,100804.44
2023-05-11T19:19:36.956Z,100804.48
2023-05-11T19:22:05.145Z,100801.91
2023-05-11T19:24:33.510Z,100806.64
2023-05-11T19:27:07.406Z,100809.47
2023-05-11T19:29:35.658Z,100811.74
2023-05-11T19:32:03.293Z,100810.35
2023-05-11T19:34:30.504Z,100812.98
2023-05-11T19:36:57.659Z,100816.50
2023-05-11T19:39:24.860Z,100814.02
2023-05-11T19:41:52.175Z,100813.75
2023-05-11T19:44:19.306Z,100818.02
2023-05-11T19:46:47.441Z,100818.84
2023-05-11T19:49:15.467Z,100818.48
2023-05-11T19:51:43.194Z,100818.61
2023-05-11T19:54:11.186Z,100816.03
2023-05-11T19:56:38.641Z,100814.54
2023-05-11T19:59:05.902Z,100813.33
2023-05-11T20:01:33.176Z,100813.77
2023-05-11T20:04:01.171Z,100812.00
2023-05-11T20:06:28.582Z,100814.30
2023-05-11T20:08:56.676Z,100813.64
2023-05-11T20:11:25.456Z,100812.92
2023-05-11T20:13:53.868Z,100817.73
2023-05-11T20:16:21.179Z,100814.91
2023-05-11T20:18:48.369Z,100816.58
2023-05-11T20:21:16.128Z,100818.08
2023-05-11T20:23:44.344Z,100816.81
2023-05-11T20:34:14.349Z,100816.27
2023-05-11T20:36:41.440Z,100814.34
2023-05-11T20:39:09.463Z,100815.70
2023-05-11T20:41:36.616Z,100820.21
2023-05-11T20:44:04.179Z,100820.20
2023-05-11T20:46:31.227Z,100820.68
2023-05-11T20:48:58.363Z,100823.60
2023-05-11T20:51:25.841Z,100822.03
2023-05-11T20:53:53.939Z,100829.05
2023-05-11T20:56:21.650Z,100829.65
2023-05-11T20:58:48.619Z,100830.72
2023-05-11T21:02:17.198Z,100834.12
2023-05-11T21:04:44.916Z,100834.62
2023-05-11T21:07:12.464Z,100834.80
2023-05-11T21:09:39.612Z,100831.95
2023-05-11T21:12:07.873Z,100831.30
2023-05-11T21:14:34.989Z,100837.31
2023-05-11T21:17:02.281Z,100831.54
2023-05-11T21:19:29.575Z,100833.17
2023-05-11T21:21:56.597Z,100836.06
2023-05-11T21:24:23.947Z,100833.73
2023-05-11T21:26:51.300Z,100832.88
2023-05-11T21:29:18.448Z,100834.59
2023-05-11T21:31:45.606Z,100834.66
2023-05-11T21:34:12.974Z,100832.93
2023-05-11T21:36:41.563Z,100834.90
2023-05-11T21:39:08.687Z,100836.30
2023-05-11T21:41:35.789Z,100837.81
2023-05-11T21:44:02.753Z,100838.22
2023-05-11T21:46:30.607Z,100836.84
2023-05-11T21:48:57.802Z,100838.86
2023-05-11T21:51:24.877Z,100839.64
2023-05-11T21:53:52.136Z,100838.84
2023-05-11T21:56:19.263Z,100840.40
2023-05-11T21:58:46.329Z,100840.50
2023-05-11T22:01:14.167Z,100843.36
2023-05-11T22:03:41.398Z,100843.75
2023-05-11T22:06:08.618Z,100845.27
2023-05-11T22:08:36.081Z,100842.28
2023-05-11T22:11:04.332Z,100840.28
2023-05-11T22:13:31.472Z,100835.59
2023-05-11T22:15:58.559Z,100834.97
2023-05-11T22:18:25.851Z,100835.70
2023-05-11T22:20:53.010Z,100836.13
2023-05-11T22:23:20.168Z,100838.55
2023-05-11T22:25:47.306Z,100840.57
2023-05-11T22:28:14.421Z,100836.98
2023-05-11T22:30:41.501Z,100843.04
2023-05-11T22:33:08.654Z,100843.23
2023-05-11T22:35:35.732Z,100844.27
2023-05-11T22:38:02.975Z,100844.05
2023-05-11T22:40:30.145Z,100845.04
2023-05-11T22:42:57.263Z,100851.55
2023-05-11T22:45:24.407Z,100855.46
2023-05-11T22:47:51.471Z,100854.98
2023-05-11T22:50:18.785Z,100854.17
2023-05-11T22:52:47.515Z,100856.16
2023-05-11T22:55:14.652Z,100855.41
2023-05-11T22:57:41.787Z,100851.81
2023-05-11T23:00:12.233Z,100854.92
2023-05-11T23:02:39.503Z,100857.79
2023-05-11T23:05:07.390Z,100855.46
2023-05-11T23:07:34.725Z,100854.58
2023-05-11T23:10:01.804Z,100854.98
2023-05-11T23:12:28.929Z,100854.71
2023-05-11T23:14:56.957Z,100853.20
2023-05-11T23:17:24.209Z,100855.63
2023-05-11T23:19:51.360Z,100855.88
2023-05-11T23:22:18.448Z,100853.84
2023-05-11T23:24:45.658Z,100857.34
2023-05-11T23:27:12.711Z,100858.27
2023-05-11T23:29:40.692Z,100857.12
2023-05-11T23:32:07.728Z,100855.35
2023-05-11T23:34:34.958Z,100858.02
2023-05-11T23:37:02.092Z,100858.66
2023-05-11T23:39:29.357Z,100864.22
2023-05-11T23:41:56.354Z,100862.75
2023-05-11T23:44:23.488Z,100863.04
2023-05-11T23:46:50.680Z,100861.80
2023-05-11T23:49:17.978Z,100862.78
2023-05-11T23:51:45.137Z,100866.45
2023-05-11T23:54:12.129Z,100868.80
2023-05-11T23:56:39.166Z,100866.43
2023-05-11T23:59:06.284Z,100873.20
